createdAt,value
2023-01-29T00:00:10.388Z,12.20
2023-01-29T00:03:00.910Z,9.40
2023-01-29T00:05:28.834Z,8.80
2023-01-29T00:07:57.279Z,6.90
2023-01-29T00:10:26.569Z,9.30
2023-01-29T00:12:55.160Z,7.40
2023-01-29T00:15:23.633Z,9.90
2023-01-29T00:17:51.789Z,8.70
2023-01-29T00:20:20.097Z,7.40
2023-01-29T00:22:47.983Z,6.60
2023-01-29T00:25:16.966Z,8.30
2023-01-29T00:27:45.140Z,9.80
2023-01-29T00:30:13.813Z,9.30
2023-01-29T00:32:42.184Z,8.80
2023-01-29T00:35:10.507Z,9.60
2023-01-29T00:37:38.614Z,7.40
2023-01-29T00:40:07.029Z,9.70
2023-01-29T00:43:10.022Z,9.80
2023-01-29T00:45:39.695Z,10.90
2023-01-29T00:48:07.579Z,11.10
2023-01-29T00:50:35.381Z,9.00
2023-01-29T00:53:03.298Z,9.60
2023-01-29T00:55:31.355Z,12.80
2023-01-29T00:57:59.175Z,7.90
2023-01-29T01:00:27.400Z,10.20
2023-01-29T01:03:07.784Z,9.90
2023-01-29T01:05:37.193Z,9.40
2023-01-29T01:08:25.691Z,11.40
2023-01-29T01:11:03.833Z,8.80
2023-01-29T01:13:33.847Z,10.50
2023-01-29T01:16:01.777Z,11.80
2023-01-29T01:18:30.479Z,7.70
2023-01-29T01:20:59.569Z,9.10
2023-01-29T01:23:27.899Z,11.30
2023-01-29T01:25:55.817Z,10.50
2023-01-29T01:28:23.774Z,10.10
2023-01-29T01:30:51.752Z,13.00
2023-01-29T01:33:20.272Z,8.90
2023-01-29T01:35:48.152Z,11.40
2023-01-29T01:38:16.001Z,13.00
2023-01-29T01:40:46.138Z,10.80
2023-01-29T01:43:14.057Z,12.80
2023-01-29T01:45:44.041Z,11.80
2023-01-29T01:48:17.218Z,15.60
2023-01-29T01:50:57.070Z,12.00
2023-01-29T01:53:34.518Z,15.60
2023-01-29T01:56:06.889Z,14.40
2023-01-29T01:59:02.132Z,12.40
2023-01-29T02:01:30.109Z,12.30
2023-01-29T02:04:22.380Z,12.20
2023-01-29T02:07:10.970Z,10.20
2023-01-29T02:09:49.206Z,13.50
2023-01-29T02:12:17.359Z,13.20
2023-01-29T02:14:46.005Z,10.80
2023-01-29T02:17:19.519Z,14.70
2023-01-29T02:19:59.671Z,13.40
2023-01-29T02:22:39.591Z,9.50
2023-01-29T02:25:27.595Z,10.60
2023-01-29T02:28:17.432Z,10.40
2023-01-29T02:30:50.195Z,15.00
2023-01-29T02:37:09.601Z,9.90
2023-01-29T02:40:01.688Z,13.10
2023-01-29T02:42:38.834Z,10.50
2023-01-29T02:45:19.320Z,12.70
2023-01-29T02:47:51.769Z,10.90
2023-01-29T02:50:34.078Z,13.00
2023-01-29T02:53:14.041Z,10.80
2023-01-29T02:55:48.721Z,9.50
2023-01-29T02:58:39.073Z,9.40
2023-01-29T03:01:13.063Z,12.20
2023-01-29T03:03:45.722Z,9.80
2023-01-29T03:06:46.010Z,11.30
2023-01-29T03:09:38.655Z,9.20
2023-01-29T03:12:28.985Z,11.70
2023-01-29T03:15:11.678Z,12.40
2023-01-29T03:18:11.920Z,13.30
2023-01-29T03:20:48.196Z,13.90
2023-01-29T03:23:38.006Z,11.40
2023-01-29T03:26:30.191Z,12.20
2023-01-29T03:29:19.811Z,10.40
2023-01-29T03:32:08.852Z,10.90
2023-01-29T03:34:43.966Z,13.00
2023-01-29T03:37:24.126Z,11.00
2023-01-29T03:39:52.607Z,12.90
2023-01-29T03:42:32.148Z,12.00
2023-01-29T03:45:11.852Z,11.60
2023-01-29T03:48:12.266Z,12.00
2023-01-29T03:51:18.136Z,19.20
2023-01-29T03:53:51.435Z,10.50
2023-01-29T03:56:25.606Z,12.80
2023-01-29T03:59:27.342Z,13.50
2023-01-29T04:03:07.610Z,14.70
2023-01-29T04:06:09.856Z,11.00
2023-01-29T04:08:51.497Z,14.50
2023-01-29T04:11:22.318Z,16.10
2023-01-29T04:13:52.231Z,19.40
2023-01-29T04:16:35.778Z,12.60
2023-01-29T04:19:24.280Z,14.60
2023-01-29T04:22:02.079Z,14.40
2023-01-29T04:24:31.571Z,15.70
2023-01-29T04:27:43.253Z,19.90
2023-01-29T04:34:57.419Z,9.90
2023-01-29T04:37:31.942Z,10.30
2023-01-29T04:40:23.694Z,13.30
2023-01-29T04:43:08.881Z,15.30
2023-01-29T04:45:49.070Z,13.50
2023-01-29T04:48:49.315Z,12.00
2023-01-29T04:51:20.516Z,12.50
2023-01-29T04:53:52.674Z,12.00
2023-01-29T04:56:23.519Z,13.30
2023-01-29T04:59:09.879Z,11.20
2023-01-29T05:01:39.164Z,10.90
2023-01-29T05:04:11.661Z,13.20
2023-01-29T05:06:41.652Z,13.60
2023-01-29T05:09:09.884Z,11.60
2023-01-29T05:11:37.880Z,12.30
2023-01-29T05:14:10.072Z,10.00
2023-01-29T05:16:46.183Z,14.10
2023-01-29T05:19:16.901Z,11.50
2023-01-29T05:21:48.138Z,12.10
2023-01-29T05:24:21.691Z,11.00
2023-01-29T05:27:10.560Z,10.10
2023-01-29T05:29:41.731Z,11.80
2023-01-29T05:32:09.553Z,15.60
2023-01-29T05:34:37.797Z,14.40
2023-01-29T05:37:05.644Z,11.60
2023-01-29T05:39:33.478Z,11.40
2023-01-29T05:42:02.082Z,14.50
2023-01-29T05:44:30.030Z,14.40
2023-01-29T05:46:57.845Z,16.00
2023-01-29T05:49:26.019Z,13.60
2023-01-29T05:51:53.970Z,18.80
2023-01-29T05:54:21.908Z,15.50
2023-01-29T05:56:55.574Z,13.60
2023-01-29T05:59:32.417Z,15.80
2023-01-29T06:02:00.385Z,17.60
2023-01-29T06:04:28.459Z,15.60
2023-01-29T06:06:56.318Z,18.00
2023-01-29T06:09:24.451Z,15.60
2023-01-29T06:11:52.310Z,14.80
2023-01-29T06:14:20.262Z,17.60
2023-01-29T06:16:48.067Z,17.60
2023-01-29T06:19:15.964Z,15.70
2023-01-29T06:21:43.982Z,16.50
2023-01-29T06:24:11.959Z,13.90
2023-01-29T06:26:39.882Z,13.00
2023-01-29T06:29:07.703Z,13.40
2023-01-29T06:31:39.676Z,16.00
2023-01-29T06:34:08.397Z,16.30
2023-01-29T06:36:36.310Z,18.10
2023-01-29T06:39:04.800Z,14.30
2023-01-29T06:41:32.875Z,15.90
2023-01-29T06:44:00.819Z,16.00
2023-01-29T06:46:28.788Z,15.10
2023-01-29T06:49:00.074Z,14.40
2023-01-29T06:51:28.045Z,16.30
2023-01-29T06:53:56.461Z,15.50
2023-01-29T06:56:27.685Z,15.40
2023-01-29T06:58:55.532Z,17.10
2023-01-29T07:01:35.589Z,16.20
2023-01-29T07:04:04.258Z,18.40
2023-01-29T07:06:32.825Z,13.30
2023-01-29T07:09:01.025Z,13.00
2023-01-29T07:11:28.969Z,13.60
2023-01-29T07:13:56.966Z,17.20
2023-01-29T07:16:26.310Z,12.00
2023-01-29T07:18:54.634Z,11.10
2023-01-29T07:21:22.582Z,18.10
2023-01-29T07:23:50.804Z,13.10
2023-01-29T07:26:18.808Z,12.30
2023-01-29T07:28:46.636Z,15.80
2023-01-29T07:31:15.419Z,11.50
2023-01-29T07:33:44.685Z,15.60
2023-01-29T07:36:15.890Z,13.40
2023-01-29T07:38:43.787Z,14.20
2023-01-29T07:41:11.834Z,17.30
2023-01-29T07:43:39.955Z,16.10
2023-01-29T07:46:08.396Z,17.30
2023-01-29T07:48:36.612Z,19.20
2023-01-29T07:51:05.596Z,16.90
2023-01-29T07:53:33.487Z,16.70
2023-01-29T07:56:01.339Z,15.90
2023-01-29T07:58:29.154Z,15.10
2023-01-29T08:00:56.990Z,15.60
2023-01-29T08:03:25.189Z,15.00
2023-01-29T08:05:53.122Z,13.80
2023-01-29T08:08:21.088Z,14.30
2023-01-29T08:10:48.897Z,13.80
2023-01-29T08:13:16.898Z,14.50
2023-01-29T08:15:45.697Z,11.50
2023-01-29T08:18:14.913Z,14.90
2023-01-29T08:20:42.841Z,13.40
2023-01-29T08:23:16.558Z,12.10
2023-01-29T08:25:44.863Z,15.80
2023-01-29T08:28:12.971Z,12.30
2023-01-29T08:30:41.220Z,12.00
2023-01-29T08:33:09.116Z,16.20
2023-01-29T08:35:37.554Z,14.60
2023-01-29T08:38:05.738Z,13.20
2023-01-29T08:40:35.192Z,15.50
2023-01-29T08:43:09.374Z,13.60
2023-01-29T08:45:41.179Z,15.70
2023-01-29T08:48:10.297Z,13.70
2023-01-29T08:50:38.517Z,17.00
2023-01-29T08:53:08.968Z,17.60
2023-01-29T08:55:38.617Z,15.20
2023-01-29T08:58:08.382Z,18.70
2023-01-29T09:00:36.456Z,15.90
2023-01-29T09:03:05.265Z,15.60
2023-01-29T09:05:34.994Z,21.00
2023-01-29T09:08:03.227Z,16.90
2023-01-29T09:10:31.420Z,16.90
2023-01-29T09:12:59.355Z,15.20
2023-01-29T09:15:27.745Z,17.20
2023-01-29T09:17:55.830Z,15.70
2023-01-29T09:20:23.957Z,13.90
2023-01-29T09:22:53.908Z,16.10
2023-01-29T09:25:21.849Z,10.60
2023-01-29T09:27:49.704Z,14.70
2023-01-29T09:30:18.358Z,14.40
2023-01-29T09:32:54.589Z,16.70
2023-01-29T09:35:23.813Z,12.30
2023-01-29T09:37:52.981Z,15.60
2023-01-29T09:40:26.765Z,15.70
2023-01-29T09:43:01.976Z,14.10
2023-01-29T09:45:30.623Z,15.00
2023-01-29T09:48:02.318Z,17.50
2023-01-29T09:50:40.151Z,14.40
2023-01-29T09:53:29.617Z,13.30
2023-01-29T09:56:14.512Z,15.90
2023-01-29T09:58:43.875Z,17.40
2023-01-29T10:01:23.841Z,18.00
2023-01-29T10:04:13.685Z,13.30
2023-01-29T10:06:44.635Z,19.90
2023-01-29T10:09:44.450Z,13.80
2023-01-29T10:12:18.094Z,15.30
2023-01-29T10:14:58.274Z,15.50
2023-01-29T10:17:51.103Z,14.90
2023-01-29T10:20:44.020Z,13.20
2023-01-29T10:23:31.489Z,19.00
2023-01-29T10:26:01.047Z,15.90
2023-01-29T10:28:37.282Z,16.20
2023-01-29T10:31:12.587Z,12.20
2023-01-29T10:33:49.211Z,14.20
2023-01-29T10:36:34.457Z,15.30
2023-01-29T10:39:02.311Z,15.60
2023-01-29T10:41:53.969Z,17.60
2023-01-29T10:44:38.021Z,17.60
2023-01-29T10:47:33.190Z,12.70
2023-01-29T10:50:13.143Z,17.00
2023-01-29T10:52:59.560Z,18.60
2023-01-29T10:55:36.685Z,16.00
2023-01-29T10:58:16.861Z,13.70
2023-01-29T11:04:35.420Z,15.20
2023-01-29T11:07:03.259Z,20.00
2023-01-29T11:09:46.392Z,18.40
2023-01-29T11:12:22.796Z,17.70
2023-01-29T11:15:07.167Z,14.70
2023-01-29T11:17:35.029Z,15.50
2023-01-29T11:20:06.113Z,15.00
2023-01-29T11:22:34.336Z,16.70
2023-01-29T11:25:21.679Z,16.30
2023-01-29T11:27:52.923Z,18.00
2023-01-29T11:30:25.784Z,19.80
2023-01-29T11:33:17.991Z,16.60
2023-01-29T11:35:46.592Z,20.00
2023-01-29T11:38:18.662Z,16.60
2023-01-29T11:43:27.823Z,18.90
2023-01-29T11:46:12.144Z,14.50
2023-01-29T11:48:51.759Z,19.20
2023-01-29T11:51:29.855Z,18.80
2023-01-29T11:54:01.165Z,15.00
2023-01-29T11:56:39.982Z,16.80
2023-01-29T11:59:35.304Z,18.30
2023-01-29T12:02:18.278Z,20.20
2023-01-29T12:04:47.888Z,19.10
2023-01-29T12:07:18.323Z,19.80
2023-01-29T12:09:56.059Z,20.10
2023-01-29T12:12:35.541Z,19.10
2023-01-29T12:15:26.464Z,20.60
2023-01-29T12:18:30.318Z,14.70
2023-01-29T12:21:04.803Z,23.10
2023-01-29T12:23:48.168Z,20.10
2023-01-29T12:26:21.717Z,20.60
2023-01-29T12:29:15.002Z,21.50
2023-01-29T12:32:19.334Z,20.30
2023-01-29T12:35:00.900Z,26.00
2023-01-29T12:38:07.742Z,25.00
2023-01-29T12:40:47.732Z,24.80
2023-01-29T12:43:18.531Z,29.40
2023-01-29T12:45:52.920Z,28.20
2023-01-29T12:48:29.640Z,30.00
2023-01-29T12:51:06.733Z,24.40
2023-01-29T12:53:47.515Z,28.90
2023-01-29T12:56:39.624Z,14.90
2023-01-29T12:59:34.353Z,26.80
2023-01-29T13:02:38.685Z,24.70
2023-01-29T13:05:43.640Z,24.80
2023-01-29T13:08:30.849Z,22.80
2023-01-29T13:11:02.310Z,21.20
2023-01-29T13:13:41.031Z,23.70
2023-01-29T13:16:12.628Z,25.20
2023-01-29T13:18:47.838Z,25.00
2023-01-29T13:21:22.267Z,32.30
2023-01-29T13:23:53.474Z,29.40
2023-01-29T13:26:23.223Z,35.80
2023-01-29T13:28:52.426Z,26.80
2023-01-29T13:31:37.884Z,27.70
2023-01-29T13:34:17.810Z,32.00
2023-01-29T13:36:52.937Z,29.00
2023-01-29T13:39:27.345Z,30.90
2023-01-29T13:41:57.116Z,26.30
2023-01-29T13:44:37.103Z,22.10
2023-01-29T13:47:08.919Z,33.70
2023-01-29T13:49:40.668Z,27.90
2023-01-29T13:52:26.842Z,28.20
2023-01-29T13:55:15.367Z,23.40
2023-01-29T13:57:49.039Z,30.50
2023-01-29T14:00:25.028Z,33.00
2023-01-29T14:02:55.861Z,33.20
2023-01-29T14:05:32.672Z,30.80
2023-01-29T14:08:27.114Z,24.70
2023-01-29T14:11:22.048Z,25.00
2023-01-29T14:13:50.147Z,27.50
2023-01-29T14:16:18.022Z,25.70
2023-01-29T14:19:18.103Z,27.30
2023-01-29T14:21:50.489Z,31.10
2023-01-29T14:24:22.183Z,27.80
2023-01-29T14:26:55.358Z,26.40
2023-01-29T14:29:34.215Z,24.50
2023-01-29T14:32:05.963Z,31.10
2023-01-29T14:35:01.112Z,26.90
2023-01-29T14:37:36.702Z,30.90
2023-01-29T14:40:23.987Z,29.60
2023-01-29T14:43:08.076Z,27.90
2023-01-29T14:45:44.564Z,24.00
2023-01-29T14:48:12.401Z,28.60
2023-01-29T14:50:43.841Z,29.20
2023-01-29T14:53:18.478Z,28.30
2023-01-29T14:56:01.667Z,22.80
2023-01-29T14:58:49.197Z,23.50
2023-01-29T15:01:27.031Z,28.30
2023-01-29T15:04:07.650Z,30.90
2023-01-29T15:06:44.800Z,29.00
2023-01-29T15:09:36.876Z,29.30
2023-01-29T15:15:36.692Z,31.20
2023-01-29T15:18:08.109Z,26.10
2023-01-29T15:20:39.097Z,28.50
2023-01-29T15:23:44.185Z,29.60
2023-01-29T15:26:17.897Z,27.80
2023-01-29T15:29:02.114Z,36.20
2023-01-29T15:31:32.226Z,30.20
2023-01-29T15:34:06.218Z,26.40
2023-01-29T15:36:36.667Z,25.30
2023-01-29T15:39:22.930Z,26.70
2023-01-29T15:42:04.382Z,31.80
2023-01-29T15:44:34.905Z,28.80
2023-01-29T15:47:03.026Z,36.70
2023-01-29T15:49:34.233Z,33.10
2023-01-29T15:52:15.988Z,29.50
2023-01-29T15:54:44.541Z,32.00
2023-01-29T15:57:23.100Z,30.80
2023-01-29T16:02:46.294Z,29.50
2023-01-29T16:05:23.158Z,32.30
2023-01-29T16:07:52.536Z,30.40
2023-01-29T16:10:23.022Z,30.00
2023-01-29T16:12:52.245Z,28.60
2023-01-29T16:15:54.013Z,26.80
2023-01-29T16:18:28.389Z,25.00
2023-01-29T16:20:58.657Z,33.80
2023-01-29T16:23:29.702Z,26.70
2023-01-29T16:26:05.169Z,27.80
2023-01-29T16:28:34.394Z,30.50
2023-01-29T16:31:04.310Z,30.00
2023-01-29T16:33:38.412Z,36.20
2023-01-29T16:36:22.542Z,37.10
2023-01-29T16:38:54.943Z,33.50
2023-01-29T16:41:23.972Z,31.60
2023-01-29T16:44:04.519Z,34.40
2023-01-29T16:46:34.532Z,32.50
2023-01-29T16:49:23.743Z,29.60
2023-01-29T16:51:52.524Z,34.30
2023-01-29T16:54:33.783Z,37.60
2023-01-29T16:57:02.149Z,38.00
2023-01-29T16:59:35.007Z,40.90
2023-01-29T17:02:04.608Z,46.30
2023-01-29T17:04:33.257Z,38.10
2023-01-29T17:07:02.611Z,38.70
2023-01-29T17:09:34.087Z,35.20
2023-01-29T17:12:05.414Z,36.10
2023-01-29T17:14:34.466Z,33.60
2023-01-29T17:17:05.179Z,33.90
2023-01-29T17:19:33.316Z,34.40
2023-01-29T17:22:04.730Z,37.30
2023-01-29T17:24:32.502Z,39.10
2023-01-29T17:27:02.233Z,43.60
2023-01-29T17:29:31.737Z,52.40
2023-01-29T17:32:00.313Z,42.70
2023-01-29T17:34:28.462Z,42.70
2023-01-29T17:36:57.526Z,41.60
2023-01-29T17:39:25.771Z,48.30
2023-01-29T17:41:55.792Z,43.50
2023-01-29T17:44:28.101Z,40.50
2023-01-29T17:46:56.132Z,45.30
2023-01-29T17:49:25.266Z,44.00
2023-01-29T17:51:55.125Z,46.10
2023-01-29T17:54:23.921Z,41.90
2023-01-29T17:56:53.137Z,39.70
2023-01-29T17:59:27.759Z,37.70
2023-01-29T18:01:55.828Z,36.40
2023-01-29T18:04:23.883Z,42.00
2023-01-29T18:06:53.238Z,40.70
2023-01-29T18:09:21.859Z,42.10
2023-01-29T18:11:51.122Z,36.10
2023-01-29T18:14:19.199Z,39.30
2023-01-29T18:16:47.161Z,43.20
2023-01-29T18:19:31.220Z,44.00
2023-01-29T18:21:59.466Z,35.30
2023-01-29T18:24:31.068Z,39.60
2023-01-29T18:26:58.820Z,38.40
2023-01-29T18:29:30.130Z,38.50
2023-01-29T18:31:58.449Z,45.30
2023-01-29T18:34:26.380Z,40.60
2023-01-29T18:36:54.160Z,42.30
2023-01-29T18:39:22.127Z,52.40
2023-01-29T18:41:49.895Z,59.00
2023-01-29T18:44:17.818Z,49.60
2023-01-29T18:46:45.740Z,44.30
2023-01-29T18:49:13.589Z,35.60
2023-01-29T18:51:41.434Z,38.50
2023-01-29T18:54:13.105Z,49.20
2023-01-29T18:57:13.064Z,40.20
2023-01-29T18:59:28.923Z,45.10
2023-01-29T19:04:35.345Z,48.50
2023-01-29T19:07:04.841Z,46.70
2023-01-29T19:09:32.874Z,49.80
2023-01-29T19:12:00.816Z,44.40
2023-01-29T19:14:28.734Z,48.40
2023-01-29T19:16:57.101Z,49.10
2023-01-29T19:19:25.621Z,43.30
2023-01-29T19:21:54.328Z,48.60
2023-01-29T19:24:22.953Z,50.80
2023-01-29T19:26:51.322Z,43.30
2023-01-29T19:29:20.288Z,43.50
2023-01-29T19:31:48.471Z,49.10
2023-01-29T19:34:16.406Z,44.80
2023-01-29T19:36:44.471Z,51.30
2023-01-29T19:39:12.849Z,47.80
2023-01-29T19:41:41.964Z,47.50
2023-01-29T19:44:11.568Z,43.80
2023-01-29T19:46:39.474Z,45.20
2023-01-29T19:49:07.409Z,51.90
2023-01-29T19:51:35.439Z,48.10
2023-01-29T19:54:04.131Z,45.90
2023-01-29T19:56:34.594Z,46.30
2023-01-29T19:59:02.736Z,55.30
2023-01-29T20:01:31.081Z,57.00
2023-01-29T20:03:58.955Z,49.30
2023-01-29T20:06:30.958Z,50.40
2023-01-29T20:11:54.411Z,35.00
2023-01-29T20:14:22.426Z,54.50
2023-01-29T20:16:50.329Z,43.50
2023-01-29T20:19:20.099Z,56.30
2023-01-29T20:21:49.022Z,50.60
2023-01-29T20:24:17.744Z,48.70
2023-01-29T20:26:45.699Z,50.10
2023-01-29T20:29:13.676Z,47.20
2023-01-29T20:31:41.774Z,48.80
2023-01-29T20:34:09.983Z,48.60
2023-01-29T20:36:38.030Z,44.00
2023-01-29T20:39:05.968Z,43.00
2023-01-29T20:41:34.274Z,44.40
2023-01-29T20:44:02.334Z,43.10
2023-01-29T20:46:30.526Z,45.30
2023-01-29T20:48:58.710Z,45.10
2023-01-29T20:51:26.676Z,48.10
2023-01-29T20:53:55.606Z,46.40
2023-01-29T20:56:35.951Z,47.30
2023-01-29T20:59:09.642Z,39.20
2023-01-29T21:01:37.570Z,44.90
2023-01-29T21:04:05.472Z,44.30
2023-01-29T21:06:33.740Z,45.30
2023-01-29T21:09:01.711Z,49.90
2023-01-29T21:11:30.007Z,47.50
2023-01-29T21:13:59.175Z,40.30
2023-01-29T21:16:27.517Z,38.90
2023-01-29T21:18:59.683Z,42.00
2023-01-29T21:21:28.034Z,44.60
2023-01-29T21:23:56.231Z,36.30
2023-01-29T21:26:24.544Z,40.50
2023-01-29T21:28:52.581Z,39.20
2023-01-29T21:31:20.793Z,39.70
2023-01-29T21:33:48.726Z,41.10
2023-01-29T21:36:17.502Z,40.40
2023-01-29T21:38:45.532Z,37.00
2023-01-29T21:41:13.560Z,39.00
2023-01-29T21:43:41.480Z,40.00
2023-01-29T21:46:12.026Z,41.00
2023-01-29T21:48:41.229Z,41.80
2023-01-29T21:51:09.265Z,40.80
2023-01-29T21:53:37.358Z,37.40
2023-01-29T21:56:06.125Z,41.70
2023-01-29T21:58:34.023Z,36.90
2023-01-29T22:01:35.187Z,37.50
2023-01-29T22:03:49.796Z,39.60
2023-01-29T22:06:18.256Z,38.10
2023-01-29T22:08:49.055Z,42.20
2023-01-29T22:11:17.047Z,42.20
2023-01-29T22:13:45.259Z,36.80
2023-01-29T22:16:13.148Z,45.20
2023-01-29T22:18:40.995Z,42.40
2023-01-29T22:21:09.078Z,41.90
2023-01-29T22:23:38.023Z,40.30
2023-01-29T22:26:07.209Z,46.30
2023-01-29T22:28:35.364Z,42.20
2023-01-29T22:31:05.383Z,41.20
2023-01-29T22:33:33.607Z,41.60
2023-01-29T22:36:01.846Z,38.10
2023-01-29T22:38:30.248Z,46.10
2023-01-29T22:41:00.441Z,37.40
2023-01-29T22:43:29.408Z,38.10
2023-01-29T22:45:57.487Z,35.50
2023-01-29T22:48:25.599Z,37.50
2023-01-29T22:51:09.672Z,37.80
2023-01-29T22:53:38.602Z,41.80
2023-01-29T22:56:07.365Z,34.50
2023-01-29T22:58:35.373Z,37.60
2023-01-29T23:01:04.047Z,37.20
2023-01-29T23:03:32.104Z,36.60
2023-01-29T23:06:00.075Z,38.00
2023-01-29T23:08:28.506Z,40.00
2023-01-29T23:11:13.915Z,39.30
2023-01-29T23:13:53.578Z,40.70
2023-01-29T23:16:26.266Z,32.80
2023-01-29T23:18:56.572Z,38.90
2023-01-29T23:21:25.360Z,36.30
2023-01-29T23:23:55.411Z,35.20
2023-01-29T23:26:42.055Z,37.60
2023-01-29T23:29:10.604Z,42.90
2023-01-29T23:31:38.941Z,38.50
2023-01-29T23:34:07.219Z,36.90
2023-01-29T23:36:35.163Z,34.40
2023-01-29T23:39:03.097Z,34.70
2023-01-29T23:41:30.926Z,31.80
2023-01-29T23:43:58.931Z,30.90
2023-01-29T23:46:27.211Z,30.40
2023-01-29T23:48:55.107Z,30.20
2023-01-29T23:51:24.238Z,29.30
2023-01-29T23:53:52.905Z,30.00
2023-01-29T23:56:20.898Z,28.90
2023-01-29T23:58:53.506Z,33.70
